createdAt,value
2022-11-02T00:01:03.640Z,32.13
2022-11-02T00:03:34.040Z,29.25
2022-11-02T00:06:03.605Z,30.85
2022-11-02T00:08:33.195Z,32.50
2022-11-02T00:11:03.984Z,28.10
2022-11-02T00:13:33.732Z,30.23
2022-11-02T00:16:13.673Z,26.58
2022-11-02T00:18:44.865Z,31.48
2022-11-02T00:21:15.354Z,31.08
2022-11-02T00:23:45.311Z,31.88
2022-11-02T00:26:15.192Z,28.38
2022-11-02T00:28:44.758Z,31.20
2022-11-02T00:31:14.300Z,30.67
2022-11-02T00:33:43.923Z,33.65
2022-11-02T00:36:13.720Z,30.38
2022-11-02T00:38:43.302Z,29.08
2022-11-02T00:41:14.448Z,28.77
2022-11-02T00:43:44.042Z,28.90
2022-11-02T00:46:13.635Z,26.45
2022-11-02T00:48:43.286Z,27.48
2022-11-02T00:51:12.812Z,27.20
2022-11-02T00:53:42.383Z,25.73
2022-11-02T00:56:12.003Z,25.23
2022-11-02T00:58:41.516Z,26.70
2022-11-02T01:01:11.307Z,33.15
2022-11-02T01:03:41.488Z,34.65
2022-11-02T01:06:13.146Z,30.58
2022-11-02T01:08:42.668Z,28.10
2022-11-02T01:11:22.006Z,30.25
2022-11-02T01:13:53.944Z,31.30
2022-11-02T01:16:23.652Z,29.30
2022-11-02T01:18:57.700Z,25.98
2022-11-02T01:21:30.264Z,25.92
2022-11-02T01:23:59.870Z,25.23
2022-11-02T01:26:29.409Z,28.50
2022-11-02T01:28:59.003Z,22.83
2022-11-02T01:31:28.677Z,21.80
2022-11-02T01:33:58.256Z,24.52
2022-11-02T01:36:27.814Z,21.90
2022-11-02T01:38:58.519Z,24.08
2022-11-02T01:41:28.272Z,27.25
2022-11-02T01:44:00.685Z,24.90
2022-11-02T01:46:46.359Z,22.33
2022-11-02T01:49:21.781Z,24.42
2022-11-02T01:52:04.585Z,23.02
2022-11-02T01:54:39.675Z,20.10
2022-11-02T01:57:14.636Z,26.55
2022-11-02T01:59:56.299Z,23.10
2022-11-02T02:02:28.186Z,25.70
2022-11-02T02:05:11.785Z,23.33
2022-11-02T02:07:42.430Z,26.02
2022-11-02T02:10:12.179Z,24.38
2022-11-02T02:12:43.634Z,21.40
2022-11-02T02:15:14.442Z,21.92
2022-11-02T02:18:12.217Z,28.35
2022-11-02T02:21:14.024Z,23.05
2022-11-02T02:24:21.853Z,23.85
2022-11-02T02:27:30.027Z,23.15
2022-11-02T02:30:12.237Z,22.90
2022-11-02T02:32:53.150Z,20.67
2022-11-02T02:35:37.582Z,22.70
2022-11-02T02:38:32.342Z,22.10
2022-11-02T02:41:15.521Z,22.73
2022-11-02T02:43:52.077Z,24.65
2022-11-02T02:46:34.532Z,21.08
2022-11-02T02:49:07.192Z,26.08
2022-11-02T02:51:39.413Z,21.67
2022-11-02T02:54:21.204Z,20.13
2022-11-02T02:56:59.319Z,23.48
2022-11-02T03:02:01.559Z,20.80
2022-11-02T03:04:31.892Z,19.15
2022-11-02T03:07:04.002Z,20.30
2022-11-02T03:09:42.438Z,20.15
2022-11-02T03:12:51.169Z,23.00
2022-11-02T03:15:45.693Z,22.85
2022-11-02T03:18:49.906Z,24.67
2022-11-02T03:21:43.237Z,18.98
2022-11-02T03:24:36.858Z,20.65
2022-11-02T03:27:24.771Z,21.10
2022-11-02T03:33:10.308Z,21.55
2022-11-02T03:36:05.772Z,20.42
2022-11-02T03:38:45.601Z,20.27
2022-11-02T03:41:17.564Z,18.70
2022-11-02T03:43:49.183Z,19.70
2022-11-02T03:46:20.698Z,24.20
2022-11-02T03:48:52.346Z,20.27
2022-11-02T03:51:24.767Z,19.40
2022-11-02T03:54:03.675Z,24.98
2022-11-02T03:56:45.478Z,23.08
2022-11-02T03:59:15.498Z,21.52
2022-11-02T04:01:48.286Z,27.77
2022-11-02T04:04:19.148Z,20.73
2022-11-02T04:06:51.120Z,21.05
2022-11-02T04:09:21.118Z,22.42
2022-11-02T04:12:10.627Z,21.58
2022-11-02T04:14:40.502Z,22.42
2022-11-02T04:20:01.609Z,18.42
2022-11-02T04:22:52.101Z,20.50
2022-11-02T04:25:22.636Z,17.20
2022-11-02T04:27:54.824Z,15.18
2022-11-02T04:30:25.949Z,19.42
2022-11-02T04:33:15.575Z,19.70
2022-11-02T04:35:45.377Z,20.20
2022-11-02T04:38:34.853Z,18.35
2022-11-02T04:41:28.091Z,19.42
2022-11-02T04:43:59.489Z,17.20
2022-11-02T04:46:34.242Z,18.92
2022-11-02T04:49:04.839Z,19.35
2022-11-02T04:51:35.092Z,17.88
2022-11-02T04:54:05.868Z,17.52
2022-11-02T04:56:35.766Z,16.92
2022-11-02T04:59:05.701Z,20.88
2022-11-02T05:01:35.790Z,25.48
2022-11-02T05:04:06.064Z,16.73
2022-11-02T05:06:39.515Z,17.38
2022-11-02T05:09:09.049Z,16.08
2022-11-02T05:11:38.586Z,19.08
2022-11-02T05:14:08.484Z,17.30
2022-11-02T05:16:38.052Z,20.08
2022-11-02T05:19:11.112Z,20.83
2022-11-02T05:21:41.027Z,16.40
2022-11-02T05:24:10.727Z,17.33
2022-11-02T05:26:40.215Z,14.70
2022-11-02T05:29:10.561Z,15.73
2022-11-02T05:31:41.794Z,14.18
2022-11-02T05:34:11.384Z,19.20
2022-11-02T05:36:41.024Z,15.95
2022-11-02T05:39:10.754Z,14.85
2022-11-02T05:41:40.634Z,15.77
2022-11-02T05:44:10.678Z,15.45
2022-11-02T05:46:40.584Z,16.70
2022-11-02T05:49:10.476Z,17.20
2022-11-02T05:51:40.359Z,14.55
2022-11-02T05:54:10.156Z,17.02
2022-11-02T05:56:40.147Z,14.35
2022-11-02T05:59:10.184Z,14.88
2022-11-02T06:01:41.212Z,17.90
2022-11-02T06:04:10.889Z,15.02
2022-11-02T06:06:40.836Z,19.35
2022-11-02T06:09:10.619Z,17.13
2022-11-02T06:11:40.154Z,15.32
2022-11-02T06:14:09.791Z,13.05
2022-11-02T06:16:39.381Z,14.25
2022-11-02T06:19:09.034Z,16.88
2022-11-02T06:21:38.645Z,14.52
2022-11-02T06:24:08.348Z,15.73
2022-11-02T06:26:38.168Z,18.30
2022-11-02T06:29:07.779Z,14.13
2022-11-02T06:31:37.314Z,17.77
2022-11-02T06:34:06.940Z,20.45
2022-11-02T06:36:36.600Z,26.13
2022-11-02T06:39:06.205Z,18.65
2022-11-02T06:41:35.746Z,12.75
2022-11-02T06:44:05.425Z,15.13
2022-11-02T06:46:35.065Z,14.05
2022-11-02T06:49:04.736Z,13.45
2022-11-02T06:51:34.284Z,12.88
2022-11-02T06:54:08.420Z,14.23
2022-11-02T06:56:38.595Z,12.20
2022-11-02T06:59:08.103Z,14.10
2022-11-02T07:01:37.847Z,16.02
2022-11-02T07:04:07.869Z,14.57
2022-11-02T07:06:37.462Z,16.95
2022-11-02T07:09:08.442Z,13.30
2022-11-02T07:11:38.299Z,13.90
2022-11-02T07:14:08.166Z,18.95
2022-11-02T07:16:38.115Z,15.57
2022-11-02T07:19:08.039Z,24.08
2022-11-02T07:21:39.578Z,11.20
2022-11-02T07:24:10.461Z,15.85
2022-11-02T07:26:40.374Z,14.00
2022-11-02T07:29:10.308Z,16.08
2022-11-02T07:31:40.207Z,15.00
2022-11-02T07:34:14.096Z,17.58
2022-11-02T07:36:47.782Z,14.00
2022-11-02T07:39:17.914Z,15.30
2022-11-02T07:41:51.765Z,12.82
2022-11-02T07:44:21.959Z,18.17
2022-11-02T07:46:51.922Z,13.93
2022-11-02T07:49:21.941Z,13.85
2022-11-02T07:51:51.990Z,12.98
2022-11-02T07:54:21.875Z,18.85
2022-11-02T07:56:51.755Z,13.43
2022-11-02T07:59:21.693Z,13.25
2022-11-02T08:01:51.696Z,13.80
2022-11-02T08:06:52.611Z,13.77
2022-11-02T08:09:22.462Z,13.80
2022-11-02T08:11:52.585Z,12.00
2022-11-02T08:14:22.419Z,21.75
2022-11-02T08:16:54.588Z,13.68
2022-11-02T08:19:24.477Z,12.45
2022-11-02T08:21:54.670Z,17.08
2022-11-02T08:24:24.542Z,12.10
2022-11-02T08:26:55.023Z,11.93
2022-11-02T08:29:25.204Z,11.45
2022-11-02T08:31:55.073Z,13.50
2022-11-02T08:34:24.932Z,12.57
2022-11-02T08:36:55.399Z,12.25
2022-11-02T08:39:25.291Z,15.48
2022-11-02T08:41:55.218Z,18.30
2022-11-02T08:44:25.070Z,13.38
2022-11-02T08:49:24.614Z,15.25
2022-11-02T08:51:54.957Z,10.75
2022-11-02T08:54:24.908Z,15.73
2022-11-02T08:57:12.144Z,11.15
2022-11-02T08:59:42.259Z,15.30
2022-11-02T09:02:13.100Z,12.50
2022-11-02T09:04:43.363Z,15.15
2022-11-02T09:07:13.247Z,10.68
2022-11-02T09:09:43.544Z,13.60
2022-11-02T09:12:13.400Z,26.85
2022-11-02T09:14:43.336Z,13.40
2022-11-02T09:17:13.225Z,12.35
2022-11-02T09:19:43.075Z,13.93
2022-11-02T09:22:14.311Z,13.55
2022-11-02T09:24:44.172Z,13.48
2022-11-02T09:27:14.421Z,13.32
2022-11-02T09:29:44.229Z,14.23
2022-11-02T09:32:14.150Z,17.63
2022-11-02T09:34:44.091Z,14.35
2022-11-02T09:37:14.506Z,12.73
2022-11-02T09:39:44.379Z,14.65
2022-11-02T09:42:43.073Z,12.13
2022-11-02T09:45:22.008Z,11.35
2022-11-02T09:48:15.752Z,11.10
2022-11-02T09:51:08.900Z,13.70
2022-11-02T09:54:18.063Z,11.02
2022-11-02T09:56:49.287Z,14.23
2022-11-02T09:59:28.096Z,10.10
2022-11-02T10:02:25.188Z,11.80
2022-11-02T10:05:35.105Z,13.75
2022-11-02T10:08:27.918Z,11.93
2022-11-02T10:11:30.221Z,11.45
2022-11-02T10:14:25.803Z,12.93
2022-11-02T10:17:13.733Z,13.00
2022-11-02T10:19:48.794Z,11.15
2022-11-02T10:22:18.767Z,13.95
2022-11-02T10:24:50.727Z,14.68
2022-11-02T10:27:35.855Z,18.00
2022-11-02T10:30:25.228Z,17.20
2022-11-02T10:32:58.328Z,15.88
2022-11-02T10:36:17.452Z,14.63
2022-11-02T10:39:16.804Z,16.33
2022-11-02T10:42:04.131Z,15.20
2022-11-02T10:45:02.108Z,14.32
2022-11-02T10:47:42.184Z,16.42
2022-11-02T10:50:38.638Z,17.45
2022-11-02T10:53:39.631Z,17.00
2022-11-02T10:56:58.339Z,20.35
2022-11-02T10:59:28.591Z,24.80
2022-11-02T11:02:16.079Z,17.15
2022-11-02T11:04:46.801Z,19.73
2022-11-02T11:07:26.185Z,18.65
2022-11-02T11:09:58.229Z,19.13
2022-11-02T11:12:43.065Z,18.52
2022-11-02T11:15:49.047Z,20.38
2022-11-02T11:24:30.891Z,19.05
2022-11-02T11:27:24.186Z,24.52
2022-11-02T11:30:00.393Z,24.02
2022-11-02T11:32:31.856Z,21.27
2022-11-02T11:35:09.090Z,25.95
2022-11-02T11:37:39.725Z,26.80
2022-11-02T11:40:20.904Z,30.70
2022-11-02T11:42:56.355Z,30.90
2022-11-02T11:45:31.495Z,27.13
2022-11-02T11:48:28.992Z,29.27
2022-11-02T11:50:59.085Z,30.52
2022-11-02T11:53:29.284Z,34.15
2022-11-02T11:56:01.866Z,27.50
2022-11-02T11:58:36.822Z,37.33
2022-11-02T12:01:22.607Z,41.72
2022-11-02T12:04:05.692Z,42.45
2022-11-02T12:07:03.993Z,53.17
2022-11-02T12:10:00.057Z,49.85
2022-11-02T12:13:04.358Z,63.60
2022-11-02T12:16:03.856Z,66.63
2022-11-02T12:19:08.811Z,70.57
2022-11-02T12:22:11.616Z,70.72
2022-11-02T12:25:20.301Z,67.97
2022-11-02T12:28:29.247Z,67.68
2022-11-02T12:31:24.796Z,61.47
2022-11-02T12:34:19.380Z,55.03
2022-11-02T12:37:40.524Z,54.50
2022-11-02T12:40:45.510Z,41.97
2022-11-02T12:43:41.534Z,47.53
2022-11-02T12:46:48.693Z,59.72
2022-11-02T12:49:54.347Z,43.30
2022-11-02T12:52:56.669Z,48.97
2022-11-02T12:55:41.375Z,43.00
2022-11-02T12:58:25.186Z,45.65
2022-11-02T13:01:20.703Z,37.95
2022-11-02T13:04:27.879Z,33.58
2022-11-02T13:07:16.641Z,29.48
2022-11-02T13:10:03.012Z,31.42
2022-11-02T13:12:38.924Z,33.00
2022-11-02T13:15:18.387Z,34.55
2022-11-02T13:18:06.775Z,34.28
2022-11-02T13:20:55.157Z,35.92
2022-11-02T13:23:52.835Z,37.30
2022-11-02T13:26:34.606Z,35.70
2022-11-02T13:29:43.710Z,37.97
2022-11-02T13:32:43.621Z,35.47
2022-11-02T13:35:45.426Z,33.28
2022-11-02T13:38:45.134Z,35.67
2022-11-02T13:45:15.595Z,33.35
2022-11-02T13:48:26.607Z,32.50
2022-11-02T13:51:10.346Z,28.65
2022-11-02T13:53:57.136Z,24.98
2022-11-02T13:56:31.339Z,27.17
2022-11-02T14:01:55.542Z,33.47
2022-11-02T14:04:32.679Z,32.25
2022-11-02T14:07:07.541Z,32.72
2022-11-02T14:09:48.044Z,27.20
2022-11-02T14:12:52.878Z,34.20
2022-11-02T14:18:36.156Z,29.52
2022-11-02T14:21:45.176Z,30.10
2022-11-02T14:24:55.796Z,31.05
2022-11-02T14:27:42.062Z,30.10
2022-11-02T14:31:00.295Z,31.88
2022-11-02T14:34:09.460Z,29.23
2022-11-02T14:40:31.362Z,32.17
2022-11-02T14:43:38.415Z,33.40
2022-11-02T14:49:46.495Z,33.97
2022-11-02T14:52:34.720Z,26.70
2022-11-02T14:55:29.293Z,28.33
2022-11-02T14:58:20.392Z,27.55
2022-11-02T15:01:14.835Z,33.13
2022-11-02T15:03:45.655Z,28.60
2022-11-02T15:06:29.204Z,28.70
2022-11-02T15:09:09.889Z,27.42
2022-11-02T15:12:22.984Z,31.25
2022-11-02T15:15:03.031Z,27.92
2022-11-02T15:17:53.380Z,28.83
2022-11-02T15:20:39.349Z,36.90
2022-11-02T15:23:36.104Z,27.40
2022-11-02T15:26:08.908Z,30.70
2022-11-02T15:28:39.695Z,25.85
2022-11-02T15:31:23.153Z,29.65
2022-11-02T15:34:03.596Z,28.52
2022-11-02T15:36:40.254Z,34.70
2022-11-02T15:39:13.272Z,34.85
2022-11-02T15:42:14.813Z,25.67
2022-11-02T15:45:26.790Z,29.50
2022-11-02T15:48:46.135Z,30.27
2022-11-02T15:51:44.323Z,35.30
2022-11-02T15:54:45.719Z,30.70
2022-11-02T15:57:44.915Z,30.77
2022-11-02T16:00:21.156Z,35.63
2022-11-02T16:02:55.203Z,39.05
2022-11-02T16:05:28.629Z,39.40
2022-11-02T16:08:15.123Z,48.75
2022-11-02T16:10:45.503Z,45.60
2022-11-02T16:13:22.508Z,39.85
2022-11-02T16:16:03.703Z,40.00
2022-11-02T16:18:44.328Z,37.00
2022-11-02T16:21:17.411Z,40.65
2022-11-02T16:24:01.454Z,30.73
2022-11-02T16:26:32.727Z,31.85
2022-11-02T16:29:05.616Z,37.13
2022-11-02T16:31:35.521Z,31.73
2022-11-02T16:34:23.225Z,36.13
2022-11-02T16:36:53.397Z,38.58
2022-11-02T16:39:38.132Z,32.50
2022-11-02T16:42:22.299Z,30.58
2022-11-02T16:45:02.798Z,33.20
2022-11-02T16:47:43.652Z,34.05
2022-11-02T16:50:33.245Z,28.80
2022-11-02T16:53:04.395Z,34.92
2022-11-02T16:55:42.148Z,31.20
2022-11-02T16:58:18.986Z,37.55
2022-11-02T17:01:05.034Z,32.88
2022-11-02T17:03:36.453Z,32.35
2022-11-02T17:06:08.938Z,36.97
2022-11-02T17:08:41.254Z,32.92
2022-11-02T17:11:17.751Z,29.42
2022-11-02T17:13:57.453Z,27.23
2022-11-02T17:16:27.315Z,36.80
2022-11-02T17:18:57.333Z,33.08
2022-11-02T17:21:31.710Z,30.70
2022-11-02T17:24:01.849Z,29.02
2022-11-02T17:26:34.874Z,31.20
2022-11-02T17:29:25.857Z,31.52
2022-11-02T17:32:02.737Z,28.30
2022-11-02T17:34:33.327Z,32.67
2022-11-02T17:37:03.321Z,30.38
2022-11-02T17:39:35.263Z,30.73
2022-11-02T17:42:25.076Z,35.05
2022-11-02T17:44:55.012Z,31.08
2022-11-02T17:47:25.026Z,31.38
2022-11-02T17:49:54.950Z,30.48
2022-11-02T17:52:24.774Z,34.83
2022-11-02T17:54:54.885Z,30.40
2022-11-02T17:57:24.687Z,35.08
2022-11-02T17:59:54.774Z,33.70
2022-11-02T18:02:24.885Z,31.27
2022-11-02T18:04:58.296Z,32.60
2022-11-02T18:07:28.433Z,30.90
2022-11-02T18:09:58.024Z,38.45
2022-11-02T18:12:27.576Z,30.52
2022-11-02T18:14:57.164Z,29.20
2022-11-02T18:17:29.795Z,27.90
2022-11-02T18:20:01.871Z,37.80
2022-11-02T18:22:31.413Z,34.30
2022-11-02T18:25:03.786Z,32.75
2022-11-02T18:27:33.390Z,39.83
2022-11-02T18:30:03.252Z,32.10
2022-11-02T18:32:32.968Z,35.17
2022-11-02T18:35:02.497Z,31.08
2022-11-02T18:37:32.107Z,38.42
2022-11-02T18:40:02.324Z,33.92
2022-11-02T18:42:31.910Z,37.40
2022-11-02T18:45:02.002Z,33.60
2022-11-02T18:47:31.561Z,29.75
2022-11-02T18:50:02.369Z,31.55
2022-11-02T18:52:32.524Z,29.35
2022-11-02T18:55:06.903Z,30.58
2022-11-02T18:57:36.866Z,33.33
2022-11-02T19:00:06.833Z,29.98
2022-11-02T19:02:36.462Z,34.00
2022-11-02T19:05:26.342Z,35.65
2022-11-02T19:08:16.066Z,31.52
2022-11-02T19:10:48.696Z,33.15
2022-11-02T19:13:18.297Z,29.52
2022-11-02T19:15:47.870Z,31.92
2022-11-02T19:18:17.400Z,30.40
2022-11-02T19:20:46.971Z,37.03
2022-11-02T19:23:16.470Z,30.73
2022-11-02T19:25:52.669Z,25.88
2022-11-02T19:28:22.246Z,26.80
2022-11-02T19:30:51.770Z,25.90
2022-11-02T19:33:21.264Z,30.75
2022-11-02T19:35:58.406Z,26.60
2022-11-02T19:38:28.295Z,29.95
2022-11-02T19:41:07.075Z,29.40
2022-11-02T19:43:36.576Z,34.78
2022-11-02T19:46:07.457Z,31.85
2022-11-02T19:48:37.681Z,34.70
2022-11-02T19:51:27.580Z,29.40
2022-11-02T19:54:00.227Z,29.20
2022-11-02T19:56:31.699Z,33.13
2022-11-02T19:59:01.646Z,30.42
2022-11-02T20:01:37.084Z,25.95
2022-11-02T20:04:07.774Z,27.13
2022-11-02T20:06:43.785Z,26.10
2022-11-02T20:09:19.476Z,31.52
2022-11-02T20:11:50.103Z,26.15
2022-11-02T20:14:21.112Z,25.10
2022-11-02T20:16:59.040Z,22.65
2022-11-02T20:19:34.386Z,28.38
2022-11-02T20:22:04.317Z,25.20
2022-11-02T20:24:34.238Z,28.15
2022-11-02T20:27:06.102Z,28.10
2022-11-02T20:29:36.215Z,23.05
2022-11-02T20:32:11.747Z,20.60
2022-11-02T20:34:42.446Z,28.63
2022-11-02T20:37:12.345Z,23.25
2022-11-02T20:39:42.202Z,25.70
2022-11-02T20:42:12.744Z,25.15
2022-11-02T20:44:42.629Z,24.85
2022-11-02T20:47:12.516Z,21.77
2022-11-02T20:49:50.548Z,23.38
2022-11-02T20:52:23.879Z,23.85
2022-11-02T20:54:54.033Z,30.05
2022-11-02T20:57:24.766Z,26.58
2022-11-02T20:59:54.640Z,47.55
2022-11-02T21:02:24.999Z,67.53
2022-11-02T21:04:55.227Z,78.28
2022-11-02T21:07:25.648Z,76.57
2022-11-02T21:09:55.610Z,61.13
2022-11-02T21:12:45.082Z,64.63
2022-11-02T21:15:15.105Z,53.28
2022-11-02T21:17:45.043Z,49.08
2022-11-02T21:23:08.083Z,39.78
2022-11-02T21:25:38.531Z,38.35
2022-11-02T21:28:08.513Z,36.40
2022-11-02T21:30:38.374Z,38.60
2022-11-02T21:33:08.545Z,45.30
2022-11-02T21:35:38.649Z,41.13
2022-11-02T21:38:08.554Z,51.30
2022-11-02T21:40:38.384Z,43.63
2022-11-02T21:43:08.588Z,39.53
2022-11-02T21:45:38.816Z,35.30
2022-11-02T21:48:08.914Z,28.00
2022-11-02T21:50:38.748Z,28.58
2022-11-02T21:53:08.843Z,23.63
2022-11-02T21:55:39.188Z,22.70
2022-11-02T21:58:09.770Z,23.80
2022-11-02T22:00:59.326Z,22.48
2022-11-02T22:03:29.465Z,22.35
2022-11-02T22:06:01.062Z,24.33
2022-11-02T22:08:40.627Z,26.23
2022-11-02T22:11:14.743Z,23.70
2022-11-02T22:13:45.664Z,22.33
2022-11-02T22:16:18.615Z,29.23
2022-11-02T22:18:50.407Z,28.83
2022-11-02T22:21:21.462Z,33.00
2022-11-02T22:23:51.933Z,28.17
2022-11-02T22:26:25.432Z,23.17
2022-11-02T22:28:56.071Z,24.98
2022-11-02T22:31:28.646Z,25.92
2022-11-02T22:34:00.556Z,26.45
2022-11-02T22:36:35.158Z,30.30
2022-11-02T22:39:07.664Z,27.30
2022-11-02T22:41:40.904Z,25.08
2022-11-02T22:44:14.180Z,26.05
2022-11-02T22:46:47.347Z,25.23
2022-11-02T22:49:18.945Z,38.70
2022-11-02T22:51:51.990Z,32.63
2022-11-02T22:54:22.565Z,32.13
2022-11-02T22:56:52.461Z,38.55
2022-11-02T22:59:22.585Z,35.33
2022-11-02T23:01:58.249Z,40.35
2022-11-02T23:04:28.472Z,40.47
2022-11-02T23:06:58.823Z,33.28
2022-11-02T23:09:29.438Z,31.92
2022-11-02T23:11:59.366Z,32.90
2022-11-02T23:14:29.304Z,31.05
2022-11-02T23:17:00.371Z,27.23
2022-11-02T23:19:34.681Z,30.05
2022-11-02T23:22:30.601Z,29.48
2022-11-02T23:25:22.265Z,35.72
2022-11-02T23:28:19.757Z,31.48
2022-11-02T23:31:09.327Z,40.22
2022-11-02T23:33:39.310Z,36.05
2022-11-02T23:36:13.219Z,34.88
2022-11-02T23:39:05.052Z,36.17
2022-11-02T23:41:37.104Z,36.67
2022-11-02T23:44:13.343Z,34.20
2022-11-02T23:46:53.772Z,45.03
2022-11-02T23:49:23.718Z,72.20
2022-11-02T23:52:13.131Z,73.40
2022-11-02T23:55:02.648Z,64.05
2022-11-02T23:57:33.412Z,63.42
